SWA1330 KMDW-KERI
Flight info
| Callsign | SWA1330 |
|---|---|
| Flight time | 0h 40m |
| Altitude | 37000 |
| Route | LEWKE GIJ BRYTO MODEM POOFE GILLS |
| Aircraft | B737/M-SDE2E3FGHIRWXY/LB1 |
Departure
| Time | 2026-04-25 20:41 |
|---|---|
| Airport | Chicago Midway International Airport (KMDW) |
Arrival
| Time | 2026-04-25 21:21 |
|---|---|
| Airport | Erie International Tom Ridge Field (KERI) |
| Time | Latitude | Longitude | Altitude | Speed | Heading |
|---|---|---|---|---|---|
| 2026-04-25 20:16 | 41.78641 | -87.74508 | 628 ft | 0 kts | 313° |
| 2026-04-25 20:36 | 41.78637 | -87.74503 | 628 ft | 2 kts | 313° |
| 2026-04-25 20:36 | 41.78628 | -87.74489 | 628 ft | 0 kts | 313° |
| 2026-04-25 20:36 | 41.78621 | -87.74478 | 628 ft | 2 kts | 288° |
| 2026-04-25 20:37 | 41.78620 | -87.74459 | 628 ft | 1 kts | 255° |
| 2026-04-25 20:37 | 41.78622 | -87.74451 | 628 ft | 1 kts | 246° |
| 2026-04-25 20:37 | 41.78623 | -87.74448 | 628 ft | 0 kts | 249° |
| 2026-04-25 20:38 | 41.78620 | -87.74452 | 628 ft | 2 kts | 224° |
| 2026-04-25 20:38 | 41.78526 | -87.74543 | 628 ft | 30 kts | 223° |
| 2026-04-25 20:39 | 41.78617 | -87.74813 | 628 ft | 33 kts | 280° |
| 2026-04-25 20:39 | 41.78509 | -87.74977 | 628 ft | 23 kts | 222° |
| 2026-04-25 20:39 | 41.78392 | -87.75127 | 628 ft | 23 kts | 223° |
| 2026-04-25 20:39 | 41.78314 | -87.75223 | 628 ft | 23 kts | 222° |
| 2026-04-25 20:40 | 41.78106 | -87.75487 | 628 ft | 39 kts | 224° |
| 2026-04-25 20:40 | 41.77889 | -87.75808 | 628 ft | 48 kts | 250° |
| 2026-04-25 20:40 | 41.77931 | -87.75941 | 628 ft | 7 kts | 61° |
| 2026-04-25 20:40 | 41.77982 | -87.75851 | 628 ft | 15 kts | 38° |
| 2026-04-25 20:41 | 41.78097 | -87.75713 | 628 ft | 60 kts | 43° |
| 2026-04-25 20:41 | 41.78643 | -87.75012 | 630 ft | 153 kts | 42° |
| 2026-04-25 20:41 | 41.79475 | -87.73931 | 1485 ft | 174 kts | 44° |
| 2026-04-25 20:41 | 41.80278 | -87.72720 | 2513 ft | 192 kts | 53° |
| 2026-04-25 20:42 | 41.80778 | -87.71147 | 3898 ft | 191 kts | 74° |
| 2026-04-25 20:42 | 41.80851 | -87.69118 | 3913 ft | 257 kts | 96° |
| 2026-04-25 20:42 | 41.80385 | -87.66643 | 3933 ft | 279 kts | 99° |
| 2026-04-25 20:42 | 41.79874 | -87.64284 | 4886 ft | 262 kts | 106° |
| 2026-04-25 20:43 | 41.79261 | -87.62110 | 6292 ft | 258 kts | 101° |
| 2026-04-25 20:43 | 41.79012 | -87.59727 | 7279 ft | 266 kts | 85° |
| 2026-04-25 20:43 | 41.79195 | -87.57248 | 8547 ft | 271 kts | 82° |
| 2026-04-25 20:43 | 41.79217 | -87.54762 | 9772 ft | 276 kts | 91° |
| 2026-04-25 20:44 | 41.79046 | -87.52235 | 11019 ft | 277 kts | 94° |
| 2026-04-25 20:44 | 41.78886 | -87.49700 | 12266 ft | 275 kts | 91° |
| 2026-04-25 20:44 | 41.78725 | -87.35679 | 19098 ft | 264 kts | 89° |
| 2026-04-25 20:44 | 41.78741 | -87.19025 | 26255 ft | 256 kts | 91° |
| 2026-04-25 20:45 | 41.78644 | -87.15954 | 27140 ft | 442 kts | 90° |
| 2026-04-25 20:45 | 41.77913 | -86.86389 | 36494 ft | 420 kts | 90° |
| 2026-04-25 20:45 | 41.77640 | -86.74686 | 38701 ft | 423 kts | 91° |
| 2026-04-25 20:45 | 41.77375 | -86.50533 | 36263 ft | 442 kts | 89° |
| 2026-04-25 20:46 | 41.77306 | -86.46379 | 35904 ft | 463 kts | 90° |
| 2026-04-25 20:46 | 41.77203 | -86.41936 | 35506 ft | 484 kts | 90° |
| 2026-04-25 20:46 | 41.76566 | -86.17067 | 34153 ft | 494 kts | 90° |
| 2026-04-25 20:46 | 41.76451 | -86.12413 | 34138 ft | 498 kts | 90° |
| 2026-04-25 20:47 | 41.76225 | -86.03079 | 34129 ft | 498 kts | 89° |
| 2026-04-25 20:47 | 41.75992 | -85.93855 | 34114 ft | 498 kts | 89° |
| 2026-04-25 20:48 | 41.75749 | -85.84589 | 34107 ft | 496 kts | 90° |
| 2026-04-25 20:48 | 41.75499 | -85.75382 | 34087 ft | 496 kts | 90° |
| 2026-04-25 20:49 | 41.75242 | -85.66167 | 34077 ft | 493 kts | 90° |
| 2026-04-25 20:49 | 41.74978 | -85.56986 | 33989 ft | 494 kts | 90° |
| 2026-04-25 20:50 | 41.74707 | -85.47840 | 33893 ft | 493 kts | 90° |
| 2026-04-25 20:50 | 41.74431 | -85.38704 | 33893 ft | 494 kts | 90° |
| 2026-04-25 20:51 | 41.74146 | -85.29555 | 33888 ft | 493 kts | 91° |
| 2026-04-25 20:51 | 41.73852 | -85.20381 | 33892 ft | 494 kts | 91° |
| 2026-04-25 20:52 | 41.73602 | -85.12727 | 33883 ft | 492 kts | 91° |
| 2026-04-25 20:52 | 41.73245 | -85.02103 | 33880 ft | 493 kts | 91° |
| 2026-04-25 20:53 | 41.72934 | -84.92931 | 33880 ft | 492 kts | 90° |
| 2026-04-25 20:53 | 41.73041 | -84.83814 | 33883 ft | 491 kts | 84° |
| 2026-04-25 20:54 | 41.73540 | -84.74768 | 33891 ft | 491 kts | 83° |
| 2026-04-25 20:54 | 41.74066 | -84.65664 | 33897 ft | 491 kts | 84° |
| 2026-04-25 20:55 | 41.74565 | -84.56524 | 33904 ft | 491 kts | 84° |
| 2026-04-25 20:55 | 41.75042 | -84.47437 | 33902 ft | 492 kts | 84° |
| 2026-04-25 20:56 | 41.75504 | -84.38341 | 33902 ft | 491 kts | 84° |
| 2026-04-25 20:56 | 41.75959 | -84.29192 | 33901 ft | 492 kts | 85° |
| 2026-04-25 20:57 | 41.76404 | -84.20060 | 33905 ft | 492 kts | 85° |
| 2026-04-25 20:57 | 41.76843 | -84.10910 | 33910 ft | 493 kts | 85° |
| 2026-04-25 20:58 | 41.77276 | -84.01701 | 33911 ft | 493 kts | 85° |
| 2026-04-25 20:58 | 41.77698 | -83.92577 | 33905 ft | 494 kts | 86° |
| 2026-04-25 20:59 | 41.78115 | -83.83405 | 33904 ft | 494 kts | 86° |
| 2026-04-25 20:59 | 41.78526 | -83.74216 | 33901 ft | 494 kts | 86° |
| 2026-04-25 21:00 | 41.78798 | -83.68063 | 33907 ft | 495 kts | 86° |
| 2026-04-25 21:01 | 41.79522 | -83.51240 | 33905 ft | 496 kts | 86° |
| 2026-04-25 21:01 | 41.79909 | -83.41979 | 33911 ft | 497 kts | 86° |
| 2026-04-25 21:02 | 41.80288 | -83.32770 | 33910 ft | 497 kts | 87° |
| 2026-04-25 21:02 | 41.80662 | -83.23492 | 33907 ft | 499 kts | 87° |
| 2026-04-25 21:03 | 41.81026 | -83.14256 | 33905 ft | 497 kts | 88° |
| 2026-04-25 21:03 | 41.81419 | -83.05016 | 33903 ft | 498 kts | 86° |
| 2026-04-25 21:04 | 41.82010 | -82.95718 | 33909 ft | 499 kts | 85° |
| 2026-04-25 21:04 | 41.82625 | -82.86499 | 33912 ft | 499 kts | 85° |
| 2026-04-25 21:05 | 41.83218 | -82.77268 | 33906 ft | 499 kts | 85° |
| 2026-04-25 21:05 | 41.83797 | -82.67969 | 33905 ft | 500 kts | 85° |
| 2026-04-25 21:06 | 41.84362 | -82.58685 | 33905 ft | 500 kts | 85° |
| 2026-04-25 21:06 | 41.84915 | -82.49458 | 33909 ft | 500 kts | 85° |
| 2026-04-25 21:07 | 41.85462 | -82.40177 | 33909 ft | 499 kts | 85° |
| 2026-04-25 21:07 | 41.85999 | -82.30954 | 33901 ft | 498 kts | 86° |
| 2026-04-25 21:08 | 41.86530 | -82.21665 | 33896 ft | 499 kts | 86° |
| 2026-04-25 21:08 | 41.87053 | -82.12362 | 33893 ft | 498 kts | 86° |
| 2026-04-25 21:09 | 41.87823 | -81.98473 | 33893 ft | 498 kts | 86° |
| 2026-04-25 21:09 | 41.88324 | -81.89243 | 33898 ft | 499 kts | 86° |
| 2026-04-25 21:10 | 41.88832 | -81.79890 | 33896 ft | 500 kts | 86° |
| 2026-04-25 21:10 | 41.89087 | -81.75317 | 33881 ft | 486 kts | 86° |
| 2026-04-25 21:10 | 41.89330 | -81.70941 | 33820 ft | 464 kts | 86° |
| 2026-04-25 21:11 | 41.89565 | -81.66676 | 33382 ft | 453 kts | 86° |
| 2026-04-25 21:11 | 41.89796 | -81.62450 | 32632 ft | 450 kts | 86° |
| 2026-04-25 21:11 | 41.90020 | -81.58296 | 31848 ft | 448 kts | 85° |
| 2026-04-25 21:11 | 41.90241 | -81.54188 | 30788 ft | 453 kts | 85° |
| 2026-04-25 21:12 | 41.92326 | -81.13576 | 18892 ft | 457 kts | 83° |
| 2026-04-25 21:12 | 41.93021 | -81.00100 | 14908 ft | 153 kts | 66° |
| 2026-04-25 21:12 | 41.93591 | -80.98897 | 12072 ft | 229 kts | 83° |
| 2026-04-25 21:12 | 41.94500 | -80.99010 | 9189 ft | 288 kts | 71° |
| 2026-04-25 21:13 | 41.94741 | -80.96091 | 4693 ft | 283 kts | 77° |
| 2026-04-25 21:13 | 41.95739 | -80.93705 | 12579 ft | 320 kts | 57° |
| 2026-04-25 21:13 | 41.96534 | -80.90927 | 12013 ft | 316 kts | 65° |
| 2026-04-25 21:13 | 41.96897 | -80.88040 | 11741 ft | 312 kts | 80° |
| 2026-04-25 21:14 | 41.96815 | -80.84927 | 11464 ft | 301 kts | 84° |
| 2026-04-25 21:14 | 41.96059 | -80.67488 | 10045 ft | 289 kts | 79° |
| 2026-04-25 21:14 | 41.96118 | -80.64864 | 9979 ft | 274 kts | 78° |
| 2026-04-25 21:14 | 41.96152 | -80.62348 | 9948 ft | 260 kts | 79° |
| 2026-04-25 21:15 | 41.96135 | -80.59985 | 9939 ft | 246 kts | 80° |
| 2026-04-25 21:15 | 41.96097 | -80.57746 | 9958 ft | 236 kts | 79° |
| 2026-04-25 21:15 | 41.96063 | -80.55544 | 9836 ft | 238 kts | 80° |
| 2026-04-25 21:15 | 41.95891 | -80.46333 | 8060 ft | 243 kts | 82° |
| 2026-04-25 21:16 | 41.95734 | -80.39747 | 6348 ft | 251 kts | 80° |
| 2026-04-25 21:16 | 41.96182 | -80.37540 | 5592 ft | 247 kts | 54° |
| 2026-04-25 21:16 | 41.97207 | -80.35998 | 3555 ft | 178 kts | 29° |
| 2026-04-25 21:16 | 41.98289 | -80.35178 | 3109 ft | 182 kts | 29° |
| 2026-04-25 21:17 | 41.99173 | -80.34077 | 2941 ft | 164 kts | 47° |
| 2026-04-25 21:17 | 42.01056 | -80.30909 | 2885 ft | 141 kts | 48° |
| 2026-04-25 21:17 | 42.01585 | -80.29802 | 2978 ft | 144 kts | 50° |
| 2026-04-25 21:17 | 42.02206 | -80.28645 | 2783 ft | 162 kts | 50° |
| 2026-04-25 21:18 | 42.02834 | -80.27453 | 2471 ft | 151 kts | 50° |
| 2026-04-25 21:18 | 42.03453 | -80.26302 | 2285 ft | 155 kts | 50° |
| 2026-04-25 21:18 | 42.04079 | -80.25131 | 2046 ft | 148 kts | 51° |
| 2026-04-25 21:18 | 42.04655 | -80.24043 | 1852 ft | 139 kts | 50° |
| 2026-04-25 21:19 | 42.05225 | -80.23005 | 1676 ft | 136 kts | 50° |
| 2026-04-25 21:19 | 42.05774 | -80.21960 | 1472 ft | 136 kts | 50° |
| 2026-04-25 21:19 | 42.06328 | -80.20934 | 1285 ft | 135 kts | 51° |
| 2026-04-25 21:19 | 42.06868 | -80.19940 | 1097 ft | 126 kts | 49° |
| 2026-04-25 21:20 | 42.07366 | -80.18998 | 913 ft | 122 kts | 52° |
| 2026-04-25 21:20 | 42.07686 | -80.18391 | 815 ft | 118 kts | 51° |
| 2026-04-25 21:20 | 42.08287 | -80.17281 | 734 ft | 95 kts | 54° |
| 2026-04-25 21:20 | 42.08591 | -80.16706 | 731 ft | 53 kts | 54° |
| 2026-04-25 21:21 | 42.08932 | -80.16051 | 724 ft | 25 kts | 54° |
| 2026-04-25 21:22 | 42.09056 | -80.15979 | 724 ft | 20 kts | 325° |
| 2026-04-25 21:22 | 42.09040 | -80.16106 | 724 ft | 14 kts | 236° |
| 2026-04-25 21:22 | 42.08963 | -80.16251 | 725 ft | 27 kts | 234° |
| 2026-04-25 21:22 | 42.08814 | -80.16534 | 728 ft | 43 kts | 234° |
| 2026-04-25 21:23 | 42.08638 | -80.16844 | 731 ft | 41 kts | 235° |
| 2026-04-25 21:23 | 42.08471 | -80.17158 | 734 ft | 40 kts | 233° |
| 2026-04-25 21:23 | 42.08306 | -80.17469 | 735 ft | 40 kts | 235° |
| 2026-04-25 21:23 | 42.08300 | -80.17821 | 735 ft | 39 kts | 277° |
| 2026-04-25 21:24 | 42.08293 | -80.18019 | 738 ft | 14 kts | 221° |
| 2026-04-25 21:24 | 42.08219 | -80.18105 | 737 ft | 13 kts | 219° |
| 2026-04-25 21:24 | 42.08165 | -80.18208 | 737 ft | 13 kts | 271° |
| 2026-04-25 21:24 | 42.08205 | -80.18222 | 738 ft | 4 kts | 28° |
| 2026-04-25 21:25 | 42.08210 | -80.18218 | 737 ft | 0 kts | 28° |
| 2026-04-25 21:26 | 42.08212 | -80.18217 | 737 ft | 0 kts | 28° |